Time;durP1;ratioP1;P1;durP2;ratioP2;P2;SDS_P1;SDS_P2;PMS_P1;PMS_P2;Temp;Humidity;BMP_temperature;BMP_pressure;BME280_temperature;BME280_humidity;BME280_pressure;Samples;Min_cycle;Max_cycle;Signal;HPM_P1;HPM_P2
2022/11/02 00:01:26;;;;;;;;;;;;;;;6.11;59.35;99567.16;1696815;84;20539;-83
2022/11/02 00:03:52;;;;;;;;;;;;;;;6.11;59.99;99561.92;1696926;84;20524;-85
2022/11/02 00:06:18;;;;;;;;;;;;;;;6.08;60.06;99563.27;1696715;84;20214;-83
2022/11/02 00:08:45;;;;;;;;;;;;;;;6.06;60.08;99555.91;1696569;84;21146;-84
2022/11/02 00:11:12;;;;;;;;;;;;;;;6.04;60.08;99540.72;1696696;84;20214;-82
2022/11/02 00:13:39;;;;;;;;;;;;;;;6.02;60.07;99543.77;1696691;84;20218;-85
2022/11/02 00:16:07;;;;;;;;;;;;;;;6.02;60.06;99545.96;1696700;84;20230;-83
2022/11/02 00:18:34;;;;;;;;;;;;;;;6.00;59.76;99542.94;1697154;84;20593;-84
2022/11/02 00:21:01;;;;;;;;;;;;;;;5.99;59.59;99544.70;1696997;84;22131;-85
2022/11/02 00:23:28;;;;;;;;;;;;;;;5.98;59.59;99544.27;1696704;84;20222;-84
2022/11/02 00:25:54;;;;;;;;;;;;;;;5.97;59.77;99539.06;1696697;84;20210;-85
2022/11/02 00:28:21;;;;;;;;;;;;;;;5.95;59.94;99541.23;1696632;84;20210;-84
2022/11/02 00:30:49;;;;;;;;;;;;;;;5.91;60.28;99534.32;1696791;84;20217;-84
2022/11/02 00:33:15;;;;;;;;;;;;;;;5.88;60.61;99526.53;1696779;84;21568;-85
2022/11/02 00:35:44;;;;;;;;;;;;;;;5.85;60.57;99523.99;1696896;84;20183;-85
2022/11/02 00:38:11;;;;;;;;;;;;;;;5.82;60.32;99526.64;1696657;84;20241;-84
2022/11/02 00:40:38;;;;;;;;;;;;;;;5.81;60.35;99528.83;1696670;84;20218;-84
2022/11/02 00:43:06;;;;;;;;;;;;;;;5.78;60.97;99519.72;1696857;84;20218;-84
2022/11/02 00:45:33;;;;;;;;;;;;;;;5.74;61.10;99521.98;1697080;84;22249;-85
2022/11/02 00:48:00;;;;;;;;;;;;;;;5.68;61.11;99531.19;1696741;84;20571;-85
2022/11/02 00:50:28;;;;;;;;;;;;;;;5.59;61.57;99529.13;1696745;84;20230;-85
2022/11/02 00:52:55;;;;;;;;;;;;;;;5.51;62.07;99525.77;1693420;84;20663;-87
2022/11/02 00:55:23;;;;;;;;;;;;;;;5.47;62.26;99528.00;1686494;85;20210;-84
2022/11/02 00:57:50;;;;;;;;;;;;;;;5.42;62.56;99525.91;1663055;85;21098;-85
2022/11/02 01:00:17;;;;;;;;;;;;;;;5.38;62.79;99526.84;1686533;84;20239;-87
2022/11/02 01:02:43;;;;;;;;;;;;;;;5.30;62.91;99522.16;1686504;83;20234;-84
2022/11/02 01:05:10;;;;;;;;;;;;;;;5.23;63.19;99516.58;1686583;85;20135;-85
2022/11/02 01:07:36;;;;;;;;;;;;;;;5.17;63.34;99520.99;1686821;85;20192;-82
2022/11/02 01:10:06;;;;;;;;;;;;;;;5.11;63.54;99528.91;1686520;85;21175;-83
2022/11/02 01:12:32;;;;;;;;;;;;;;;5.03;63.74;99529.45;1686472;85;20226;-84
2022/11/02 01:14:59;;;;;;;;;;;;;;;4.98;64.14;99539.06;1686404;85;20213;-84
2022/11/02 01:17:27;;;;;;;;;;;;;;;4.93;64.29;99534.34;1686401;85;20167;-84
2022/11/02 01:19:53;;;;;;;;;;;;;;;4.88;64.64;99532.23;1686646;85;20202;-85
2022/11/02 01:22:19;;;;;;;;;;;;;;;4.83;64.91;99529.67;1686491;85;21156;-85
2022/11/02 01:24:46;;;;;;;;;;;;;;;4.75;65.23;99524.98;1686573;85;20241;-84
2022/11/02 01:27:12;;;;;;;;;;;;;;;4.68;65.62;99528.09;1686493;85;21143;-86
2022/11/02 01:29:40;;;;;;;;;;;;;;;4.65;65.75;99524.20;1686800;85;21027;-85
2022/11/02 01:32:06;;;;;;;;;;;;;;;4.63;66.01;99518.16;1686574;84;20215;-84
2022/11/02 01:34:34;;;;;;;;;;;;;;;4.59;66.15;99513.83;1686532;85;21165;-85
2022/11/02 01:37:00;;;;;;;;;;;;;;;4.56;66.09;99515.20;1686340;85;20171;-84
2022/11/02 01:39:26;;;;;;;;;;;;;;;4.53;66.09;99512.62;1686526;85;20214;-82
2022/11/02 01:41:54;;;;;;;;;;;;;;;4.51;66.27;99513.08;1686444;85;20136;-85
2022/11/02 01:44:28;;;;;;;;;;;;;;;4.48;66.39;99511.80;1686532;85;20231;-81
2022/11/02 01:46:57;;;;;;;;;;;;;;;4.43;66.37;99508.78;1685940;85;21415;-84
2022/11/02 01:49:24;;;;;;;;;;;;;;;4.38;66.49;99501.45;1686279;85;20206;-86
2022/11/02 01:52:29;;;;;;;;;;;;;;;4.32;66.67;99502.84;1686305;85;20227;-85
2022/11/02 01:55:05;;;;;;;;;;;;;;;4.27;66.78;99502.02;1686421;85;20492;-85
2022/11/02 01:57:32;;;;;;;;;;;;;;;4.21;67.14;99500.76;1676057;85;20175;-84
2022/11/02 02:00:04;;;;;;;;;;;;;;;4.16;67.41;99502.54;1686444;85;21163;-83
2022/11/02 02:02:34;;;;;;;;;;;;;;;4.09;67.58;99498.68;1685454;85;20163;-83
2022/11/02 02:05:08;;;;;;;;;;;;;;;4.04;67.88;99502.21;1663293;85;20190;-83
2022/11/02 02:07:37;;;;;;;;;;;;;;;4.00;68.01;99499.19;1686725;85;20190;-84
2022/11/02 02:10:05;;;;;;;;;;;;;;;3.96;68.19;99500.10;1686435;85;20304;-85
2022/11/02 02:12:33;;;;;;;;;;;;;;;3.90;68.51;99496.67;1686417;85;22784;-84
2022/11/02 02:15:01;;;;;;;;;;;;;;;3.87;68.83;99487.58;1686402;85;20246;-84
2022/11/02 02:17:41;;;;;;;;;;;;;;;3.86;68.92;99488.89;1686445;85;20199;-85
2022/11/02 02:20:16;;;;;;;;;;;;;;;3.86;69.06;99483.24;1686446;85;20187;-84
2022/11/02 02:23:10;;;;;;;;;;;;;;;3.85;69.03;99484.55;1686814;85;20199;-83
2022/11/02 02:26:12;;;;;;;;;;;;;;;3.84;69.13;99482.84;1686480;85;21204;-82
2022/11/02 02:28:43;;;;;;;;;;;;;;;3.81;69.25;99480.26;1686370;85;20231;-86
2022/11/02 02:31:25;;;;;;;;;;;;;;;3.78;69.56;99478.53;1682718;85;20234;-85
2022/11/02 02:33:59;;;;;;;;;;;;;;;3.75;69.56;99482.90;1686497;85;20973;-82
2022/11/02 02:36:32;;;;;;;;;;;;;;;3.71;69.70;99476.41;1686532;83;20206;-83
2022/11/02 02:39:05;;;;;;;;;;;;;;;3.68;70.08;99469.95;1662810;85;21125;-85
2022/11/02 02:41:39;;;;;;;;;;;;;;;3.64;70.17;99468.23;1686506;84;20508;-85
2022/11/02 02:44:09;;;;;;;;;;;;;;;3.62;70.41;99466.53;1686386;84;20509;-84
2022/11/02 02:46:41;;;;;;;;;;;;;;;3.60;70.55;99463.94;1686689;85;20211;-84
2022/11/02 02:49:10;;;;;;;;;;;;;;;3.58;70.77;99459.61;1686601;85;20502;-83
2022/11/02 02:51:36;;;;;;;;;;;;;;;3.58;70.92;99459.61;1663041;85;21206;-84
2022/11/02 02:54:07;;;;;;;;;;;;;;;3.55;70.82;99454.00;1686377;84;20192;-84
2022/11/02 02:56:39;;;;;;;;;;;;;;;3.54;70.88;99458.77;1686610;85;20210;-82
2022/11/02 02:59:19;;;;;;;;;;;;;;;3.51;70.97;99454.47;1686343;85;20143;-83
2022/11/02 03:01:46;;;;;;;;;;;;;;;3.50;71.10;99455.78;1686715;83;20214;-84
2022/11/02 03:04:27;;;;;;;;;;;;;;;3.47;71.24;99459.25;1686324;85;22291;-84
2022/11/02 03:06:56;;;;;;;;;;;;;;;3.46;71.30;99454.05;1686241;85;20213;-81
2022/11/02 03:09:40;;;;;;;;;;;;;;;3.42;71.48;99462.77;1686477;85;20176;-85
2022/11/02 03:12:35;;;;;;;;;;;;;;;3.38;71.64;99470.14;1663283;85;20235;-84
2022/11/02 03:15:11;;;;;;;;;;;;;;;3.33;71.85;99475.39;1686574;85;20548;-84
2022/11/02 03:17:59;;;;;;;;;;;;;;;3.29;72.04;99476.27;1686600;85;21160;-83
2022/11/02 03:20:29;;;;;;;;;;;;;;;3.27;72.32;99481.92;1686650;85;21081;-85
2022/11/02 03:23:00;;;;;;;;;;;;;;;3.27;72.44;99482.77;1686668;85;20202;-81
2022/11/02 03:25:39;;;;;;;;;;;;;;;3.27;72.56;99474.97;1686508;85;20199;-84
2022/11/02 03:28:12;;;;;;;;;;;;;;;3.29;72.69;99469.77;1686544;85;20206;-83
2022/11/02 03:30:46;;;;;;;;;;;;;;;3.26;72.73;99466.77;1686500;85;21154;-85
2022/11/02 03:33:17;;;;;;;;;;;;;;;3.23;72.73;99470.67;1686506;85;20249;-83
2022/11/02 03:35:47;;;;;;;;;;;;;;;3.23;72.77;99471.98;1686645;83;20261;-83
2022/11/02 03:38:21;;;;;;;;;;;;;;;3.22;72.69;99464.18;1686505;85;20650;-84
2022/11/02 03:40:49;;;;;;;;;;;;;;;3.18;72.70;99467.23;1686488;85;20200;-85
2022/11/02 03:43:16;;;;;;;;;;;;;;;3.16;72.60;99463.76;1686352;84;21275;-83
2022/11/02 03:45:45;;;;;;;;;;;;;;;3.12;72.53;99461.62;1686514;85;20239;-84
2022/11/02 03:48:12;;;;;;;;;;;;;;;3.09;72.58;99460.77;1686633;84;20135;-83
2022/11/02 03:50:43;;;;;;;;;;;;;;;3.05;72.72;99461.23;1686569;85;20531;-82
2022/11/02 03:53:12;;;;;;;;;;;;;;;3.04;72.83;99454.73;1686565;85;20449;-83
2022/11/02 03:55:41;;;;;;;;;;;;;;;3.03;73.01;99451.73;1678090;85;21141;-83
2022/11/02 03:58:11;;;;;;;;;;;;;;;2.98;73.17;99460.39;1686173;85;20191;-84
2022/11/02 04:00:39;;;;;;;;;;;;;;;2.97;73.29;99456.50;1686457;83;20231;-84
2022/11/02 04:03:07;;;;;;;;;;;;;;;2.96;73.42;99456.95;1662964;85;20263;-83
2022/11/02 04:05:36;;;;;;;;;;;;;;;2.95;73.52;99456.50;1663631;85;20140;-85
2022/11/02 04:08:22;;;;;;;;;;;;;;;2.95;73.71;99451.30;1686309;85;21276;-85
2022/11/02 04:16:22;;;;;;;;;;;;;;;2.97;74.47;99433.11;1663007;85;20364;-86
2022/11/02 04:21:35;;;;;;;;;;;;;;;3.00;74.73;99437.44;1686387;84;21118;-83
2022/11/02 04:26:50;;;;;;;;;;;;;;;3.02;74.99;99441.74;1686750;85;20214;-85
2022/11/02 04:29:17;;;;;;;;;;;;;;;3.01;74.83;99433.53;1686445;85;20258;-84
2022/11/02 04:31:43;;;;;;;;;;;;;;;3.02;74.86;99436.99;1686705;85;20230;-83
2022/11/02 04:34:12;;;;;;;;;;;;;;;3.04;74.82;99443.89;1686523;85;21173;-86
2022/11/02 04:36:40;;;;;;;;;;;;;;;3.06;75.33;99439.98;1686607;85;20163;-85
2022/11/02 04:39:08;;;;;;;;;;;;;;;3.09;75.61;99439.98;1686548;85;20207;-85
2022/11/02 04:41:41;;;;;;;;;;;;;;;3.11;75.94;99440.83;1686677;85;20439;-84
2022/11/02 04:44:10;;;;;;;;;;;;;;;3.13;76.31;99440.41;1683377;85;21191;-84
2022/11/02 04:46:37;;;;;;;;;;;;;;;3.15;76.73;99439.51;1662913;85;22005;-86
2022/11/02 04:49:05;;;;;;;;;;;;;;;3.19;76.83;99436.45;1686325;85;20289;-85
2022/11/02 04:51:33;;;;;;;;;;;;;;;3.20;76.86;99434.28;1686484;85;20237;-84
2022/11/02 04:54:00;;;;;;;;;;;;;;;3.22;76.47;99426.03;1688214;84;20284;-86
2022/11/02 04:56:28;;;;;;;;;;;;;;;3.23;76.37;99420.39;1695062;84;20276;-84
2022/11/02 04:58:57;;;;;;;;;;;;;;;3.25;76.38;99420.82;1694819;84;20795;-86
2022/11/02 05:01:25;;;;;;;;;;;;;;;3.27;76.39;99411.71;1695139;84;20221;-86
2022/11/02 05:03:53;;;;;;;;;;;;;;;3.27;76.20;99411.27;1694825;84;20139;-86
2022/11/02 05:06:20;;;;;;;;;;;;;;;3.27;76.03;99411.27;1695104;84;20214;-86
2022/11/02 05:08:48;;;;;;;;;;;;;;;3.27;75.94;99409.97;1694955;84;20213;-84
2022/11/02 05:11:14;;;;;;;;;;;;;;;3.25;75.84;99407.82;1694891;84;21156;-86
2022/11/02 05:13:43;;;;;;;;;;;;;;;3.25;75.79;99405.22;1672757;84;20160;-84
2022/11/02 05:16:11;;;;;;;;;;;;;;;3.26;75.49;99406.08;1695155;84;20454;-87
2022/11/02 05:18:40;;;;;;;;;;;;;;;3.28;75.92;99397.84;1694901;84;20214;-85
2022/11/02 05:21:08;;;;;;;;;;;;;;;3.30;76.39;99399.99;1694903;84;20202;-85
2022/11/02 05:23:35;;;;;;;;;;;;;;;3.31;76.62;99403.89;1673290;84;20871;-86
2022/11/02 05:26:08;;;;;;;;;;;;;;;3.33;76.71;99402.12;1694837;84;20647;-85
2022/11/02 05:28:35;;;;;;;;;;;;;;;3.35;76.77;99395.17;1695356;84;20405;-86
2022/11/02 05:31:02;;;;;;;;;;;;;;;3.37;76.79;99390.41;1694759;84;21072;-85
2022/11/02 05:33:31;;;;;;;;;;;;;;;3.38;76.73;99399.92;1695183;84;20198;-86
2022/11/02 05:35:59;;;;;;;;;;;;;;;3.39;76.73;99398.61;1694820;84;21143;-86
2022/11/02 05:38:25;;;;;;;;;;;;;;;3.38;76.85;99397.32;1695121;84;20219;-85
2022/11/02 05:40:53;;;;;;;;;;;;;;;3.40;76.95;99406.85;1694974;84;20147;-84
2022/11/02 05:43:20;;;;;;;;;;;;;;;3.42;76.92;99401.20;1694767;84;20230;-85
2022/11/02 05:45:54;;;;;;;;;;;;;;;3.43;76.99;99408.14;1694998;83;20159;-85
2022/11/02 05:48:21;;;;;;;;;;;;;;;3.44;77.12;99411.59;1697071;84;22347;-83
2022/11/02 05:50:48;;;;;;;;;;;;;;;3.46;77.22;99407.23;1699687;81;20156;-85
2022/11/02 05:53:14;;;;;;;;;;;;;;;3.51;77.43;99410.66;1699412;84;20162;-83
2022/11/02 05:55:42;;;;;;;;;;;;;;;3.55;77.72;99408.48;1689775;81;21087;-86
2022/11/02 05:58:09;;;;;;;;;;;;;;;3.62;77.97;99411.89;1686715;85;20217;-86
2022/11/02 06:00:35;;;;;;;;;;;;;;;3.68;78.06;99411.83;1686764;85;21540;-86
2022/11/02 06:03:01;;;;;;;;;;;;;;;3.75;78.25;99402.23;1686446;85;20230;-86
2022/11/02 06:05:28;;;;;;;;;;;;;;;3.82;78.31;99401.32;1686490;83;20148;-86
2022/11/02 06:07:59;;;;;;;;;;;;;;;3.91;78.19;99411.63;1686375;85;20899;-80
2022/11/02 06:10:28;;;;;;;;;;;;;;;4.01;78.15;99413.27;1686408;83;20513;-86
2022/11/02 06:12:57;;;;;;;;;;;;;;;4.12;77.68;99426.20;1685701;85;21147;-86
2022/11/02 06:15:24;;;;;;;;;;;;;;;4.22;77.37;99429.55;1686016;85;20196;-86
2022/11/02 06:17:51;;;;;;;;;;;;;;;4.33;76.73;99425.09;1686439;85;20234;-86
2022/11/02 06:20:18;;;;;;;;;;;;;;;4.43;75.93;99423.27;1686311;85;20199;-85
2022/11/02 06:22:45;;;;;;;;;;;;;;;4.52;75.21;99436.62;1686397;84;20206;-86
2022/11/02 06:25:12;;;;;;;;;;;;;;;4.63;75.02;99434.77;1686307;85;21210;-86
2022/11/02 06:27:43;;;;;;;;;;;;;;;4.73;74.57;99431.61;1686387;85;20218;-87
2022/11/02 06:30:10;;;;;;;;;;;;;;;4.83;74.07;99417.58;1686667;85;20235;-88
2022/11/02 06:32:36;;;;;;;;;;;;;;;4.93;73.01;99419.17;1686462;85;20175;-87
2022/11/02 06:35:04;;;;;;;;;;;;;;;5.04;72.30;99420.33;1686162;85;20246;-85
2022/11/02 06:37:33;;;;;;;;;;;;;;;5.13;71.87;99420.66;1686334;85;21095;-88
2022/11/02 06:39:59;;;;;;;;;;;;;;;5.23;70.13;99417.45;1686530;85;20182;-87
2022/11/02 06:42:27;;;;;;;;;;;;;;;5.32;69.69;99418.64;1662906;85;20355;-88
2022/11/02 06:45:01;;;;;;;;;;;;;;;5.39;69.21;99418.96;1662732;85;20666;-86
2022/11/02 06:47:22;;;;;;;;;;;;;;;5.47;68.54;99422.32;1685995;85;20170;-87
2022/11/02 06:49:48;;;;;;;;;;;;;;;5.55;68.40;99426.98;1686627;85;21213;-86
2022/11/02 06:52:14;;;;;;;;;;;;;;;5.64;68.31;99427.73;1686738;85;20123;-87
2022/11/02 06:54:41;;;;;;;;;;;;;;;5.74;68.19;99431.91;1688900;84;20501;-88
2022/11/02 06:57:07;;;;;;;;;;;;;;;5.82;68.20;99432.65;1696733;84;20201;-87
2022/11/02 06:59:34;;;;;;;;;;;;;;;5.91;68.30;99427.25;1696815;84;21148;-86
2022/11/02 07:02:01;;;;;;;;;;;;;;;6.04;67.90;99438.85;1696826;84;21247;-86
2022/11/02 07:04:29;;;;;;;;;;;;;;;6.11;66.63;99443.07;1696703;84;21543;-86
2022/11/02 07:06:55;;;;;;;;;;;;;;;6.17;66.50;99441.66;1696922;84;20171;-84
2022/11/02 07:09:21;;;;;;;;;;;;;;;6.23;66.49;99438.92;1696971;84;20132;-86
2022/11/02 07:11:47;;;;;;;;;;;;;;;6.31;66.02;99439.64;1696816;84;20279;-85
2022/11/02 07:14:14;;;;;;;;;;;;;;;6.39;65.77;99443.86;1696574;84;21836;-85
2022/11/02 07:16:41;;;;;;;;;;;;;;;6.48;66.20;99448.93;1696684;84;20643;-84
2022/11/02 07:19:08;;;;;;;;;;;;;;;6.61;65.61;99449.56;1696644;84;20528;-84
2022/11/02 07:21:34;;;;;;;;;;;;;;;6.74;65.01;99451.47;1696844;84;20178;-85
2022/11/02 07:24:00;;;;;;;;;;;;;;;6.85;65.03;99445.59;1696712;84;20485;-82
2022/11/02 07:26:27;;;;;;;;;;;;;;;6.97;64.72;99445.78;1697031;84;21174;-84
2022/11/02 07:28:53;;;;;;;;;;;;;;;7.09;64.50;99443.34;1696742;84;20258;-85
2022/11/02 07:31:20;;;;;;;;;;;;;;;7.22;64.71;99435.64;1697125;84;20308;-84
2022/11/02 07:33:46;;;;;;;;;;;;;;;7.33;64.06;99433.66;1696801;84;20507;-89
2022/11/02 07:36:12;;;;;;;;;;;;;;;7.47;63.78;99439.02;1696761;84;20207;-88
2022/11/02 07:38:39;;;;;;;;;;;;;;;7.58;63.33;99435.26;1697114;84;21126;-85
2022/11/02 07:41:05;;;;;;;;;;;;;;;7.74;62.74;99428.34;1696635;84;20364;-86
2022/11/02 07:43:32;;;;;;;;;;;;;;;7.90;62.18;99429.69;1696831;84;20257;-84
2022/11/02 07:46:02;;;;;;;;;;;;;;;8.01;61.34;99425.47;1696263;84;20234;-86
2022/11/02 07:48:29;;;;;;;;;;;;;;;8.10;61.23;99429.18;1696826;84;20492;-87
2022/11/02 07:50:58;;;;;;;;;;;;;;;8.18;60.84;99419.33;1696889;84;21846;-87
2022/11/02 07:53:25;;;;;;;;;;;;;;;8.30;60.53;99421.22;1696691;84;20202;-88
2022/11/02 07:55:51;;;;;;;;;;;;;;;8.43;60.78;99417.40;1690922;84;20203;-87
2022/11/02 07:58:17;;;;;;;;;;;;;;;8.61;60.33;99419.09;1686423;85;20175;-86
2022/11/02 08:00:43;;;;;;;;;;;;;;;8.75;60.09;99409.08;1686686;83;20259;-84
2022/11/02 08:03:10;;;;;;;;;;;;;;;8.92;59.91;99405.50;1686435;85;21002;-84
2022/11/02 08:05:38;;;;;;;;;;;;;;;9.10;59.20;99405.87;1686388;83;21070;-87
2022/11/02 08:08:06;;;;;;;;;;;;;;;9.26;58.19;99410.18;1686331;85;20207;-87
2022/11/02 08:10:34;;;;;;;;;;;;;;;9.41;57.36;99412.79;1686757;85;20226;-87
2022/11/02 08:13:00;;;;;;;;;;;;;;;9.55;57.14;99414.53;1686539;83;20215;-84
2022/11/02 08:15:26;;;;;;;;;;;;;;;9.69;55.89;99418.48;1686509;85;21845;-87
2022/11/02 08:18:06;;;;;;;;;;;;;;;9.79;55.57;99418.59;1686449;83;20202;-86
2022/11/02 08:20:34;;;;;;;;;;;;;;;9.89;55.60;99413.89;1686593;85;20205;-86
2022/11/02 08:23:02;;;;;;;;;;;;;;;10.03;55.15;99415.12;1686692;85;20198;-86
2022/11/02 08:25:28;;;;;;;;;;;;;;;10.17;54.79;99421.67;1686686;85;20218;-83
2022/11/02 08:27:57;;;;;;;;;;;;;;;10.27;54.20;99421.78;1686539;85;21081;-84
2022/11/02 08:30:24;;;;;;;;;;;;;;;10.38;53.62;99420.96;1686555;84;20480;-83
2022/11/02 08:32:50;;;;;;;;;;;;;;;10.50;53.36;99421.45;1686883;85;20470;-87
2022/11/02 08:35:18;;;;;;;;;;;;;;;10.57;53.27;99420.30;1686459;85;20449;-84
2022/11/02 08:37:44;;;;;;;;;;;;;;;10.68;52.93;99415.52;1686693;84;20194;-87
2022/11/02 08:40:11;;;;;;;;;;;;;;;10.82;52.54;99415.47;1686361;85;21089;-86
2022/11/02 08:42:39;;;;;;;;;;;;;;;10.94;52.55;99416.31;1686423;85;20552;-85
2022/11/02 08:45:06;;;;;;;;;;;;;;;11.06;51.99;99414.55;1686638;85;20258;-83
2022/11/02 08:47:33;;;;;;;;;;;;;;;11.15;52.03;99404.97;1686558;85;20256;-85
2022/11/02 08:52:55;;;;;;;;;;;;;;;11.40;50.90;99404.45;1686590;85;21156;-86
2022/11/02 08:55:22;;;;;;;;;;;;;;;11.54;50.71;99406.09;1688979;84;20206;-86
2022/11/02 08:57:50;;;;;;;;;;;;;;;11.63;50.00;99402.22;1697083;84;20202;-83
2022/11/02 09:00:26;;;;;;;;;;;;;;;11.69;49.63;99395.39;1696896;84;20218;-85
2022/11/02 09:03:04;;;;;;;;;;;;;;;11.71;49.52;99394.39;1697264;84;20175;-85
2022/11/02 09:05:34;;;;;;;;;;;;;;;11.67;49.20;99394.59;1696994;84;20187;-85
2022/11/02 09:08:03;;;;;;;;;;;;;;;11.66;49.97;99392.88;1696899;83;20201;-87
2022/11/02 09:10:30;;;;;;;;;;;;;;;11.78;49.30;99383.13;1696878;84;20217;-87
2022/11/02 09:13:01;;;;;;;;;;;;;;;11.87;48.65;99381.91;1697324;84;20200;-87
2022/11/02 09:15:28;;;;;;;;;;;;;;;11.97;48.80;99382.39;1697044;83;20191;-85
2022/11/02 09:17:55;;;;;;;;;;;;;;;12.07;48.81;99381.95;1697226;84;20784;-85
2022/11/02 09:20:21;;;;;;;;;;;;;;;12.20;48.50;99380.94;1696870;83;20316;-86
2022/11/02 09:22:48;;;;;;;;;;;;;;;12.31;48.71;99379.64;1697047;84;20182;-87
2022/11/02 09:25:15;;;;;;;;;;;;;;;12.43;47.45;99380.41;1697017;84;21190;-86
2022/11/02 09:27:41;;;;;;;;;;;;;;;12.42;47.50;99376.05;1696994;84;20213;-85
2022/11/02 09:30:08;;;;;;;;;;;;;;;12.42;47.04;99382.64;1697177;83;21133;-86
2022/11/02 09:32:35;;;;;;;;;;;;;;;12.51;47.59;99383.56;1696924;84;20230;-86
2022/11/02 09:35:03;;;;;;;;;;;;;;;12.61;46.98;99383.54;1697215;84;20236;-87
2022/11/02 09:37:29;;;;;;;;;;;;;;;12.66;47.54;99376.74;1697105;84;20176;-86
2022/11/02 09:39:56;;;;;;;;;;;;;;;12.80;46.63;99370.34;1697462;84;20209;-88
2022/11/02 09:42:25;;;;;;;;;;;;;;;12.92;46.48;99366.76;1697055;84;21817;-86
2022/11/02 09:45:00;;;;;;;;;;;;;;;13.03;46.43;99368.44;1696360;84;20205;-87
2022/11/02 09:47:26;;;;;;;;;;;;;;;13.16;45.37;99363.41;1696990;84;20210;-82
2022/11/02 09:49:53;;;;;;;;;;;;;;;13.27;45.50;99367.73;1696962;84;20242;-83
2022/11/02 09:52:24;;;;;;;;;;;;;;;13.38;45.43;99367.23;1697075;84;20246;-85
2022/11/02 09:54:51;;;;;;;;;;;;;;;13.54;45.60;99356.30;1695894;84;21145;-85
2022/11/02 09:57:26;;;;;;;;;;;;;;;13.68;45.27;99360.89;1687289;84;20198;-85
2022/11/02 09:59:53;;;;;;;;;;;;;;;13.79;44.98;99364.34;1686580;85;20180;-85
2022/11/02 10:03:00;;;;;;;;;;;;;;;13.87;44.48;99365.26;1686538;85;20140;-83
2022/11/02 10:05:35;;;;;;;;;;;;;;;13.97;44.60;99371.82;1686354;85;20166;-87
2022/11/02 10:08:22;;;;;;;;;;;;;;;14.12;44.06;99367.51;1686675;85;20222;-86
2022/11/02 10:11:12;;;;;;;;;;;;;;;14.25;43.63;99371.70;1686675;85;20148;-87
2022/11/02 10:13:41;;;;;;;;;;;;;;;14.25;42.84;99364.61;1686439;85;20196;-85
2022/11/02 10:16:14;;;;;;;;;;;;;;;14.22;43.13;99366.56;1686402;85;20144;-88
2022/11/02 10:18:40;;;;;;;;;;;;;;;14.28;43.12;99368.91;1686216;83;20175;-84
2022/11/02 10:21:12;;;;;;;;;;;;;;;14.34;43.26;99368.59;1686797;84;21167;-83
2022/11/02 10:23:47;;;;;;;;;;;;;;;14.42;42.80;99371.66;1686538;84;20202;-86
2022/11/02 10:26:24;;;;;;;;;;;;;;;14.49;42.99;99369.55;1685855;83;20594;-84
2022/11/02 10:29:00;;;;;;;;;;;;;;;14.60;42.86;99372.52;1681976;85;20621;-87
2022/11/02 10:31:32;;;;;;;;;;;;;;;14.68;42.80;99364.17;1668213;85;20152;-86
2022/11/02 10:34:02;;;;;;;;;;;;;;;14.73;42.36;99367.43;1686562;85;21250;-86
2022/11/02 10:36:41;;;;;;;;;;;;;;;14.64;41.29;99365.27;1685506;85;20202;-86
2022/11/02 10:39:31;;;;;;;;;;;;;;;14.54;41.71;99359.60;1659123;85;20227;-85
2022/11/02 10:42:04;;;;;;;;;;;;;;;14.44;41.89;99359.23;1686611;85;20249;-86
2022/11/02 10:44:34;;;;;;;;;;;;;;;14.33;42.73;99362.91;1685668;85;20200;-84
2022/11/02 10:47:19;;;;;;;;;;;;;;;14.27;42.52;99361.45;1686842;85;21141;-86
2022/11/02 10:49:58;;;;;;;;;;;;;;;14.24;42.24;99371.30;1689961;82;20178;-85
2022/11/02 10:52:24;;;;;;;;;;;;;;;14.21;43.17;99372.81;1690420;80;20233;-79
2022/11/02 10:54:52;;;;;;;;;;;;;;;14.26;43.58;99378.72;1690366;81;20228;-83
2022/11/02 10:57:21;;;;;;;;;;;;;;;14.32;43.24;99373.09;1697409;81;20237;-86
2022/11/02 11:00:14;;;;;;;;;;;;;;;14.26;42.98;99365.49;1696713;84;22685;-86
2022/11/02 11:02:41;;;;;;;;;;;;;;;14.14;43.47;99368.31;1661912;84;20206;-86
2022/11/02 11:05:12;;;;;;;;;;;;;;;14.11;43.67;99362.69;1696840;84;20197;-86
2022/11/02 11:07:43;;;;;;;;;;;;;;;14.23;43.26;99368.30;1697079;84;20516;-85
2022/11/02 11:10:14;;;;;;;;;;;;;;;14.33;43.70;99369.52;1696646;84;21084;-84
2022/11/02 11:12:41;;;;;;;;;;;;;;;14.47;43.69;99361.72;1696721;84;21258;-84
2022/11/02 11:15:11;;;;;;;;;;;;;;;14.74;43.07;99366.95;1696767;84;20186;-86
2022/11/02 11:17:39;;;;;;;;;;;;;;;14.97;43.05;99356.44;1696204;84;20135;-85
2022/11/02 11:20:09;;;;;;;;;;;;;;;15.21;42.84;99360.37;1696666;84;20405;-85
2022/11/02 11:22:37;;;;;;;;;;;;;;;15.39;41.69;99365.56;1694252;84;20449;-86
2022/11/02 11:25:26;;;;;;;;;;;;;;;15.50;41.23;99356.98;1696548;84;21173;-87
2022/11/02 11:27:54;;;;;;;;;;;;;;;15.69;40.77;99358.97;1696637;84;20174;-85
2022/11/02 11:30:30;;;;;;;;;;;;;;;15.94;40.20;99357.08;1696567;84;20473;-85
2022/11/02 11:32:57;;;;;;;;;;;;;;;16.07;40.35;99355.02;1696692;84;20198;-88
2022/11/02 11:35:26;;;;;;;;;;;;;;;16.31;40.77;99358.85;1696954;84;20151;-85
2022/11/02 11:37:58;;;;;;;;;;;;;;;16.69;40.22;99348.13;1696945;84;21170;-88
2022/11/02 11:40:24;;;;;;;;;;;;;;;17.04;39.33;99344.59;1696736;84;20206;-86
2022/11/02 11:42:52;;;;;;;;;;;;;;;17.25;37.98;99350.83;1696782;84;20206;-87
2022/11/02 11:45:23;;;;;;;;;;;;;;;17.05;38.00;99337.50;1696711;84;20277;-88
2022/11/02 11:47:55;;;;;;;;;;;;;;;16.85;38.64;99342.75;1696702;84;20254;-85
2022/11/02 11:50:21;;;;;;;;;;;;;;;16.84;38.07;99341.00;1696616;84;21154;-84
2022/11/02 11:53:11;;;;;;;;;;;;;;;16.93;39.13;99338.26;1696773;84;20202;-86
2022/11/02 11:55:50;;;;;;;;;;;;;;;17.30;37.44;99343.41;1695105;84;20205;-88
2022/11/02 11:58:42;;;;;;;;;;;;;;;17.49;37.23;99347.52;1695793;84;20217;-85
2022/11/02 12:01:15;;;;;;;;;;;;;;;17.61;36.98;99349.36;1697202;84;20528;-89
2022/11/02 12:03:54;;;;;;;;;;;;;;;17.42;37.30;99350.57;1696789;84;21170;-86
2022/11/02 12:06:42;;;;;;;;;;;;;;;17.43;37.72;99357.61;1696894;84;20210;-85
2022/11/02 12:09:15;;;;;;;;;;;;;;;17.34;37.15;99354.20;1696694;84;20289;-87
2022/11/02 12:11:52;;;;;;;;;;;;;;;16.94;37.12;99359.42;1696766;84;20202;-86
2022/11/02 12:14:28;;;;;;;;;;;;;;;16.45;38.25;99361.14;1696748;84;20249;-88
2022/11/02 12:16:59;;;;;;;;;;;;;;;16.17;39.23;99366.78;1696786;84;21151;-85
2022/11/02 12:19:29;;;;;;;;;;;;;;;16.00;39.80;99367.80;1696639;84;20373;-86
2022/11/02 12:24:53;;;;;;;;;;;;;;;15.88;40.04;99369.86;1606263;84;20259;-87
2022/11/02 12:27:42;;;;;;;;;;;;;;;15.60;40.54;99369.64;1696965;84;20221;-87
2022/11/02 12:30:14;;;;;;;;;;;;;;;15.34;40.82;99366.30;1696857;84;21763;-85
2022/11/02 12:33:04;;;;;;;;;;;;;;;15.13;41.51;99367.02;1697072;84;20228;-88
2022/11/02 12:35:57;;;;;;;;;;;;;;;15.02;41.72;99363.17;1696763;84;20206;-88
2022/11/02 12:38:33;;;;;;;;;;;;;;;14.80;42.29;99366.16;1696947;84;20489;-88
2022/11/02 12:41:19;;;;;;;;;;;;;;;14.67;42.54;99367.75;1696883;84;20230;-87
2022/11/02 12:43:49;;;;;;;;;;;;;;;14.57;43.15;99370.48;1696317;84;21057;-88
2022/11/02 12:46:26;;;;;;;;;;;;;;;14.53;43.61;99375.56;1696544;84;20206;-86
2022/11/02 12:48:59;;;;;;;;;;;;;;;14.51;43.08;99380.94;1696638;84;20594;-85
2022/11/02 12:51:28;;;;;;;;;;;;;;;14.40;42.53;99377.52;1696144;84;20274;-85
2022/11/02 12:53:58;;;;;;;;;;;;;;;14.24;42.83;99377.48;1696913;84;20210;-86
2022/11/02 12:56:31;;;;;;;;;;;;;;;14.15;43.04;99382.38;1694951;84;21832;-84
2022/11/02 12:58:57;;;;;;;;;;;;;;;14.07;43.67;99384.09;1686578;85;20202;-84
2022/11/02 13:01:33;;;;;;;;;;;;;;;14.06;43.87;99381.07;1686558;85;20476;-87
2022/11/02 13:04:18;;;;;;;;;;;;;;;14.05;43.91;99385.48;1686572;83;20211;-88
2022/11/02 13:06:47;;;;;;;;;;;;;;;14.08;44.03;99382.69;1686515;85;20207;-88
2022/11/02 13:09:29;;;;;;;;;;;;;;;14.11;44.22;99382.53;1686495;85;21120;-85
2022/11/02 13:12:20;;;;;;;;;;;;;;;14.13;44.28;99383.30;1686655;85;20206;-87
2022/11/02 13:14:49;;;;;;;;;;;;;;;14.09;44.10;99388.38;1659920;86;20197;-87
2022/11/02 13:17:22;;;;;;;;;;;;;;;14.00;44.23;99400.73;1659932;86;20495;-87
2022/11/02 13:19:52;;;;;;;;;;;;;;;13.93;44.31;99396.70;1657404;86;20555;-86
2022/11/02 13:22:20;;;;;;;;;;;;;;;13.79;44.50;99396.55;1659944;86;21384;-86
2022/11/02 13:24:52;;;;;;;;;;;;;;;13.68;44.76;99393.09;1659934;86;20181;-88
2022/11/02 13:27:30;;;;;;;;;;;;;;;13.59;45.14;99400.17;1660367;86;20202;-79